createdAt,value
2018-10-12T00:00:00.720Z,1009.49
2018-10-12T00:01:00.663Z,1009.54
2018-10-12T00:02:00.617Z,1009.53
2018-10-12T00:03:00.580Z,1009.48
2018-10-12T00:04:00.548Z,1009.47
2018-10-12T00:05:00.535Z,1009.52
2018-10-12T00:06:00.475Z,1009.50
2018-10-12T00:07:00.433Z,1009.53
2018-10-12T00:08:00.389Z,1009.46
2018-10-12T00:09:00.351Z,1009.53
2018-10-12T00:10:00.340Z,1009.50
2018-10-12T00:11:00.273Z,1009.52
2018-10-12T00:12:00.245Z,1009.49
2018-10-12T00:13:00.207Z,1009.54
2018-10-12T00:14:00.168Z,1009.52
2018-10-12T00:15:00.159Z,1009.51
2018-10-12T00:16:00.086Z,1009.52
2018-10-12T00:17:00.048Z,1009.56
2018-10-12T00:18:00.020Z,1009.55
2018-10-12T00:19:00.000Z,1009.53
2018-10-12T00:19:59.932Z,1009.59
2018-10-12T00:20:59.894Z,1009.60
2018-10-12T00:21:59.858Z,1009.62
2018-10-12T00:22:59.819Z,1009.62
2018-10-12T00:23:59.815Z,1009.62
2018-10-12T00:24:59.750Z,1009.62
2018-10-12T00:25:59.719Z,1009.65
2018-10-12T00:26:59.672Z,1009.64
2018-10-12T00:27:59.626Z,1009.62
2018-10-12T00:28:59.611Z,1009.64
2018-10-12T00:29:59.551Z,1009.66
2018-10-12T00:30:59.516Z,1009.65
2018-10-12T00:31:59.486Z,1009.67
2018-10-12T00:32:59.443Z,1009.68
2018-10-12T00:33:59.422Z,1009.74
2018-10-12T00:34:59.361Z,1009.74
2018-10-12T00:35:59.330Z,1009.71
2018-10-12T00:36:59.290Z,1009.75
2018-10-12T00:37:59.252Z,1009.77
2018-10-12T00:38:59.219Z,1009.75
2018-10-12T00:39:59.191Z,1009.77
2018-10-12T00:40:59.140Z,1009.73
2018-10-12T00:41:59.091Z,1009.75
2018-10-12T00:42:59.057Z,1009.75
2018-10-12T00:43:59.050Z,1009.76
2018-10-12T00:44:58.987Z,1009.73
2018-10-12T00:45:58.948Z,1009.75
2018-10-12T00:46:58.924Z,1009.74
2018-10-12T00:47:58.866Z,1009.80
2018-10-12T00:48:58.827Z,1009.71
2018-10-12T00:49:58.820Z,1009.69
2018-10-12T00:50:58.757Z,1009.67
2018-10-12T00:51:58.713Z,1009.63
2018-10-12T00:52:58.679Z,1009.65
2018-10-12T00:53:58.658Z,1009.74
2018-10-12T00:54:58.597Z,1009.66
2018-10-12T00:55:58.570Z,1009.69
2018-10-12T00:56:58.525Z,1009.68
2018-10-12T00:57:58.488Z,1009.65
2018-10-12T00:58:58.479Z,1009.66
2018-10-12T00:59:58.409Z,1009.69
2018-10-12T01:00:58.373Z,1009.65
2018-10-12T01:01:58.333Z,1009.66
2018-10-12T01:02:58.313Z,1009.69
2018-10-12T01:03:58.262Z,1009.77
2018-10-12T01:04:58.223Z,1009.75
2018-10-12T01:05:58.178Z,1009.75
2018-10-12T01:06:58.140Z,1009.78
2018-10-12T01:07:58.136Z,1009.77
2018-10-12T01:08:58.076Z,1009.74
2018-10-12T01:09:58.034Z,1009.74
2018-10-12T01:10:57.995Z,1009.85
2018-10-12T01:11:57.972Z,1009.80
2018-10-12T01:12:57.913Z,1009.79
2018-10-12T01:13:57.874Z,1009.77
2018-10-12T01:14:57.840Z,1009.85
2018-10-12T01:15:57.803Z,1009.87
2018-10-12T01:16:57.791Z,1009.91
2018-10-12T01:17:57.754Z,1009.88
2018-10-12T01:18:57.688Z,1009.84
2018-10-12T01:19:57.644Z,1009.85
2018-10-12T01:20:57.608Z,1009.81
2018-10-12T01:21:57.573Z,1009.75
2018-10-12T01:22:57.558Z,1009.82
2018-10-12T01:23:57.490Z,1009.80
2018-10-12T01:24:57.456Z,1009.82
2018-10-12T01:25:57.420Z,1009.82
2018-10-12T01:26:57.381Z,1009.77
2018-10-12T01:27:57.368Z,1009.79
2018-10-12T01:28:57.312Z,1009.70
2018-10-12T01:29:57.275Z,1009.79
2018-10-12T01:30:57.236Z,1009.77
2018-10-12T01:31:57.186Z,1009.75
2018-10-12T01:32:57.174Z,1009.77
2018-10-12T01:33:57.113Z,1009.72
2018-10-12T01:34:57.072Z,1009.67
2018-10-12T01:35:57.039Z,1009.65
2018-10-12T01:36:57.003Z,1009.59
2018-10-12T01:37:56.980Z,1009.62
2018-10-12T01:38:56.919Z,1009.65
2018-10-12T01:39:56.885Z,1009.62
2018-10-12T01:40:56.851Z,1009.68
2018-10-12T01:41:56.809Z,1009.67
2018-10-12T01:42:56.797Z,1009.64
2018-10-12T01:43:56.737Z,1009.61
2018-10-12T01:44:56.691Z,1009.55
2018-10-12T01:45:56.651Z,1009.58
2018-10-12T01:46:56.618Z,1009.55
2018-10-12T01:47:56.608Z,1009.58
2018-10-12T01:48:56.545Z,1009.67
2018-10-12T01:49:56.506Z,1009.70
2018-10-12T01:50:56.469Z,1009.69
2018-10-12T01:51:56.422Z,1009.72
2018-10-12T01:52:56.406Z,1009.78
2018-10-12T01:53:56.376Z,1009.79
2018-10-12T01:54:56.315Z,1009.84
2018-10-12T01:55:56.273Z,1009.81
2018-10-12T01:56:56.234Z,1009.85
2018-10-12T01:57:56.223Z,1009.84
2018-10-12T01:58:56.159Z,1010.00
2018-10-12T01:59:56.124Z,1009.94
2018-10-12T02:00:56.090Z,1010.04
2018-10-12T02:01:56.070Z,1010.02
2018-10-12T02:02:56.038Z,1010.04
2018-10-12T02:03:55.965Z,1009.97
2018-10-12T02:04:55.925Z,1009.96
2018-10-12T02:05:55.886Z,1009.99
2018-10-12T02:06:55.853Z,1010.03
2018-10-12T02:07:55.818Z,1010.06
2018-10-12T02:08:55.804Z,1010.08
2018-10-12T02:09:55.741Z,1010.13
2018-10-12T02:10:55.696Z,1010.08
2018-10-12T02:11:55.666Z,1010.11
2018-10-12T02:13:04.678Z,1010.11
2018-10-12T02:14:05.236Z,1010.17
2018-10-12T02:15:05.753Z,1010.16
2018-10-12T02:16:04.794Z,1010.19
2018-10-12T02:17:05.827Z,1010.22
2018-10-12T02:18:04.851Z,1010.17
2018-10-12T02:18:55.406Z,1010.20
2018-10-12T02:19:55.355Z,1010.21
2018-10-12T02:20:55.321Z,1010.24
2018-10-12T02:21:55.283Z,1010.22
2018-10-12T02:22:55.239Z,1010.24
2018-10-12T02:23:55.221Z,1010.23
2018-10-12T02:24:55.156Z,1010.23
2018-10-12T02:25:55.116Z,1010.21
2018-10-12T02:26:55.079Z,1010.19
2018-10-12T02:27:55.049Z,1010.24
2018-10-12T02:28:55.011Z,1010.22
2018-10-12T02:29:54.989Z,1010.29
2018-10-12T02:30:54.925Z,1010.24
2018-10-12T02:31:54.893Z,1010.27
2018-10-12T02:32:54.855Z,1010.25
2018-10-12T02:33:54.819Z,1010.29
2018-10-12T02:34:54.803Z,1010.31
2018-10-12T02:35:54.733Z,1010.24
2018-10-12T02:36:54.695Z,1010.25
2018-10-12T02:38:03.897Z,1010.27
2018-10-12T02:39:04.940Z,1010.30
2018-10-12T02:40:03.491Z,1010.32
2018-10-12T02:41:04.001Z,1010.35
2018-10-12T02:42:04.533Z,1010.29
2018-10-12T02:43:03.564Z,1010.31
2018-10-12T02:44:03.599Z,1010.33
2018-10-12T02:45:04.637Z,1010.28
2018-10-12T02:46:03.200Z,1010.31
2018-10-12T02:47:03.727Z,1010.34
2018-10-12T02:48:03.745Z,1010.36
2018-10-12T02:48:54.234Z,1010.41
2018-10-12T02:50:03.291Z,1010.36
2018-10-12T02:50:54.181Z,1010.42
2018-10-12T02:53:42.091Z,1010.46
2018-10-12T02:54:42.616Z,1010.50
2018-10-12T02:55:42.169Z,1010.51
2018-10-12T02:56:33.255Z,1010.50
2018-10-12T02:57:33.217Z,1010.50
2018-10-12T02:58:33.170Z,1010.50
2018-10-12T02:59:33.130Z,1010.57
2018-10-12T03:00:33.093Z,1010.59
2018-10-12T03:01:33.074Z,1010.66
2018-10-12T03:02:33.020Z,1010.66
2018-10-12T03:03:32.982Z,1010.70
2018-10-12T03:04:32.962Z,1010.76
2018-10-12T03:05:32.903Z,1010.79
2018-10-12T03:06:41.708Z,1010.75
2018-10-12T03:07:32.819Z,1010.76
2018-10-12T03:08:32.788Z,1010.79
2018-10-12T03:09:32.745Z,1010.80
2018-10-12T03:10:32.707Z,1010.82
2018-10-12T03:11:41.259Z,1010.75
2018-10-12T03:12:41.758Z,1010.76
2018-10-12T03:13:41.791Z,1010.76
2018-10-12T03:14:42.827Z,1010.79
2018-10-12T03:15:41.850Z,1010.76
2018-10-12T03:16:41.882Z,1010.77
2018-10-12T03:17:41.431Z,1010.81
2018-10-12T03:18:42.452Z,1010.77
2018-10-12T03:19:41.476Z,1010.83
2018-10-12T03:20:41.512Z,1010.81
2018-10-12T03:21:41.546Z,1010.76
2018-10-12T03:22:41.101Z,1010.81
2018-10-12T03:23:41.609Z,1010.84
2018-10-12T03:24:41.648Z,1010.85
2018-10-12T03:25:41.168Z,1010.80
2018-10-12T03:26:32.073Z,1010.84
2018-10-12T03:27:32.066Z,1010.81
2018-10-12T03:28:32.005Z,1010.81
2018-10-12T03:29:31.965Z,1010.83
2018-10-12T03:30:31.916Z,1010.81
2018-10-12T03:31:31.878Z,1010.81
2018-10-12T03:32:31.837Z,1010.82
2018-10-12T03:33:31.822Z,1010.79
2018-10-12T03:34:31.765Z,1010.85
2018-10-12T03:35:31.729Z,1010.71
2018-10-12T03:36:31.688Z,1010.75
2018-10-12T03:37:31.650Z,1010.76
2018-10-12T03:38:31.627Z,1010.79
2018-10-12T03:39:31.564Z,1010.89
2018-10-12T03:40:31.530Z,1010.86
2018-10-12T03:41:31.491Z,1010.87
2018-10-12T03:42:31.456Z,1010.88
2018-10-12T03:43:31.440Z,1010.89
2018-10-12T03:44:31.371Z,1010.89
2018-10-12T03:45:31.333Z,1010.90
2018-10-12T03:46:31.330Z,1010.95
2018-10-12T03:47:31.262Z,1010.97
2018-10-12T03:48:31.225Z,1011.01
2018-10-12T03:49:31.207Z,1011.05
2018-10-12T03:50:31.139Z,1011.08
2018-10-12T03:51:31.103Z,1011.10
2018-10-12T03:52:31.075Z,1011.04
2018-10-12T03:53:31.032Z,1011.08
2018-10-12T03:54:31.012Z,1011.14
2018-10-12T03:55:30.950Z,1011.13
2018-10-12T03:56:30.909Z,1011.15
2018-10-12T03:57:30.871Z,1011.19
2018-10-12T03:58:30.838Z,1011.21
2018-10-12T03:59:30.827Z,1011.18
2018-10-12T04:00:30.758Z,1011.19
2018-10-12T04:01:30.718Z,1011.26
2018-10-12T04:02:30.685Z,1011.32
2018-10-12T04:03:30.647Z,1011.37
2018-10-12T04:04:30.639Z,1011.37
2018-10-12T04:05:30.572Z,1011.41
2018-10-12T04:06:30.525Z,1011.39
2018-10-12T04:07:30.486Z,1011.43
2018-10-12T04:08:30.450Z,1011.43
2018-10-12T04:09:30.410Z,1011.39
2018-10-12T04:10:30.405Z,1011.35
2018-10-12T04:11:30.340Z,1011.35
2018-10-12T04:12:30.321Z,1011.38
2018-10-12T04:13:30.264Z,1011.34
2018-10-12T04:14:30.242Z,1011.33
2018-10-12T04:15:30.205Z,1011.32
2018-10-12T04:16:30.151Z,1011.33
2018-10-12T04:17:30.110Z,1011.25
2018-10-12T04:18:30.063Z,1011.27
2018-10-12T04:19:30.024Z,1011.28
2018-10-12T04:20:30.017Z,1011.24
2018-10-12T04:21:29.951Z,1011.25
2018-10-12T04:22:29.920Z,1011.19
2018-10-12T04:23:29.887Z,1011.18
2018-10-12T04:24:29.841Z,1011.14
2018-10-12T04:25:29.802Z,1011.15
2018-10-12T04:26:29.781Z,1011.18
2018-10-12T04:27:29.718Z,1011.18
2018-10-12T04:28:29.681Z,1011.19
2018-10-12T04:29:29.642Z,1011.19
2018-10-12T04:30:29.612Z,1011.26
2018-10-12T04:31:29.594Z,1011.29
2018-10-12T04:32:29.525Z,1011.28
2018-10-12T04:33:29.490Z,1011.31
2018-10-12T04:34:29.457Z,1011.36
2018-10-12T04:35:29.416Z,1011.43
2018-10-12T04:36:29.403Z,1011.44
2018-10-12T04:37:29.361Z,1011.51
2018-10-12T04:38:29.295Z,1011.56
2018-10-12T04:39:29.259Z,1011.57
2018-10-12T04:40:29.221Z,1011.58
2018-10-12T04:41:29.179Z,1011.53
2018-10-12T04:42:29.170Z,1011.58
2018-10-12T04:43:29.113Z,1011.62
2018-10-12T04:44:29.070Z,1011.58
2018-10-12T04:45:29.033Z,1011.58
2018-10-12T04:46:28.987Z,1011.60
2018-10-12T04:47:28.988Z,1011.62
2018-10-12T04:48:28.921Z,1011.64
2018-10-12T04:49:28.877Z,1011.66
2018-10-12T04:50:28.833Z,1011.67
2018-10-12T04:51:28.797Z,1011.74
2018-10-12T04:52:28.755Z,1011.82
2018-10-12T04:53:28.737Z,1011.85
2018-10-12T04:54:28.685Z,1011.89
2018-10-12T04:55:28.651Z,1011.87
2018-10-12T04:56:28.607Z,1011.89
2018-10-12T04:57:28.569Z,1011.91
2018-10-12T04:58:28.556Z,1011.89
2018-10-12T04:59:28.489Z,1011.86
2018-10-12T05:00:28.447Z,1011.88
2018-10-12T05:01:28.409Z,1011.88
2018-10-12T05:02:28.381Z,1011.91
2018-10-12T05:03:28.361Z,1012.00
2018-10-12T05:04:28.297Z,1012.08
2018-10-12T05:05:28.257Z,1012.06
2018-10-12T05:06:28.249Z,1012.08
2018-10-12T05:07:28.194Z,1012.07
2018-10-12T05:08:28.150Z,1012.06
2018-10-12T05:09:28.128Z,1012.09
2018-10-12T05:10:28.064Z,1012.08
2018-10-12T05:11:28.025Z,1012.09
2018-10-12T05:12:27.986Z,1012.11
2018-10-12T05:13:27.947Z,1012.08
2018-10-12T05:14:27.942Z,1012.09
2018-10-12T05:15:27.878Z,1012.08
2018-10-12T05:16:27.844Z,1012.13
2018-10-12T05:17:27.820Z,1012.15
2018-10-12T05:18:27.753Z,1012.17
2018-10-12T05:19:27.748Z,1012.19
2018-10-12T05:20:27.684Z,1012.14
2018-10-12T05:21:27.646Z,1012.20
2018-10-12T05:22:27.598Z,1012.28
2018-10-12T05:23:27.558Z,1012.29
2018-10-12T05:24:27.545Z,1012.28
2018-10-12T05:25:27.482Z,1012.32
2018-10-12T05:26:27.452Z,1012.35
2018-10-12T05:27:27.434Z,1012.38
2018-10-12T05:28:27.373Z,1012.40
2018-10-12T05:29:27.357Z,1012.40
2018-10-12T05:30:27.288Z,1012.44
2018-10-12T05:31:27.250Z,1012.35
2018-10-12T05:32:27.216Z,1012.43
2018-10-12T05:33:27.176Z,1012.46
2018-10-12T05:34:27.174Z,1012.51
2018-10-12T05:35:27.115Z,1012.47
2018-10-12T05:36:27.061Z,1012.51
2018-10-12T05:37:27.021Z,1012.47
2018-10-12T05:38:26.986Z,1012.48
2018-10-12T05:39:26.949Z,1012.51
2018-10-12T05:40:26.935Z,1012.48
2018-10-12T05:41:26.872Z,1012.45
2018-10-12T05:42:26.832Z,1012.55
2018-10-12T05:43:26.927Z,1012.50
2018-10-12T05:44:26.748Z,1012.54
2018-10-12T05:45:26.737Z,1012.60
2018-10-12T05:46:26.682Z,1012.55
2018-10-12T05:47:26.642Z,1012.53
2018-10-12T05:48:26.599Z,1012.58
2018-10-12T05:49:26.574Z,1012.54
2018-10-12T05:50:26.539Z,1012.55
2018-10-12T05:51:26.479Z,1012.54
2018-10-12T05:52:26.471Z,1012.60
2018-10-12T05:53:26.410Z,1012.59
2018-10-12T05:54:26.364Z,1012.64
2018-10-12T05:55:26.328Z,1012.64
2018-10-12T05:56:26.293Z,1012.67
2018-10-12T05:57:26.270Z,1012.69
2018-10-12T05:58:26.213Z,1012.74
2018-10-12T05:59:26.177Z,1012.74
2018-10-12T06:00:26.134Z,1012.79
2018-10-12T06:01:26.148Z,1012.77
2018-10-12T06:02:26.075Z,1012.83
2018-10-12T06:03:26.013Z,1012.77
2018-10-12T06:04:25.977Z,1012.77
2018-10-12T06:05:25.964Z,1012.77
2018-10-12T06:06:25.903Z,1012.75
2018-10-12T06:07:25.892Z,1012.80
2018-10-12T06:08:25.820Z,1012.79
2018-10-12T06:09:25.831Z,1012.82
2018-10-12T06:10:25.771Z,1012.82
2018-10-12T06:11:25.755Z,1012.82
2018-10-12T06:12:25.677Z,1012.85
2018-10-12T06:13:25.640Z,1012.86
2018-10-12T06:14:25.593Z,1012.86
2018-10-12T06:15:25.645Z,1012.87
2018-10-12T06:16:25.513Z,1012.82
2018-10-12T06:17:25.473Z,1012.89
2018-10-12T06:18:25.441Z,1012.83
2018-10-12T06:19:25.402Z,1012.86
2018-10-12T06:20:25.367Z,1012.90
2018-10-12T06:21:25.392Z,1012.89
2018-10-12T06:22:25.282Z,1012.85
2018-10-12T06:23:25.242Z,1012.92
2018-10-12T06:24:25.218Z,1012.88
2018-10-12T06:25:25.181Z,1012.90
2018-10-12T06:26:25.149Z,1012.90
2018-10-12T06:27:25.111Z,1012.97
2018-10-12T06:28:25.054Z,1012.99
2018-10-12T06:29:25.012Z,1013.06
2018-10-12T06:30:24.990Z,1013.05
2018-10-12T06:31:24.968Z,1013.12
2018-10-12T06:32:24.928Z,1013.13
2018-10-12T06:33:24.869Z,1013.09
2018-10-12T06:34:24.826Z,1013.09
2018-10-12T06:35:24.785Z,1013.10
2018-10-12T06:36:24.768Z,1013.09
2018-10-12T06:37:24.710Z,1013.12
2018-10-12T06:38:24.677Z,1013.18
2018-10-12T06:39:24.675Z,1013.24
2018-10-12T06:40:24.600Z,1013.28
2018-10-12T06:41:24.627Z,1013.33
2018-10-12T06:42:24.529Z,1013.34
2018-10-12T06:43:24.513Z,1013.35
2018-10-12T06:44:24.456Z,1013.36
2018-10-12T06:45:24.421Z,1013.38
2018-10-12T06:46:24.445Z,1013.43
2018-10-12T06:47:24.338Z,1013.42
2018-10-12T06:48:24.329Z,1013.47
2018-10-12T06:49:24.266Z,1013.55
2018-10-12T06:50:24.235Z,1013.58
2018-10-12T06:51:24.198Z,1013.60
2018-10-12T06:52:24.161Z,1013.67
2018-10-12T06:53:24.151Z,1013.70
2018-10-12T06:54:24.087Z,1013.69
2018-10-12T06:55:24.049Z,1013.68
2018-10-12T06:56:24.019Z,1013.75
2018-10-12T06:57:23.985Z,1013.82
2018-10-12T06:58:23.964Z,1013.85
2018-10-12T06:59:23.907Z,1013.87
2018-10-12T07:00:23.871Z,1013.95
2018-10-12T07:01:23.831Z,1014.02
2018-10-12T07:02:23.807Z,1013.99
2018-10-12T07:03:23.791Z,1014.04
2018-10-12T07:04:23.732Z,1014.02
2018-10-12T07:05:23.718Z,1014.11
2018-10-12T07:06:23.655Z,1014.16
2018-10-12T07:07:23.617Z,1014.09
2018-10-12T07:08:23.584Z,1014.05
2018-10-12T07:09:23.552Z,1014.12
2018-10-12T07:10:23.545Z,1014.19
2018-10-12T07:11:23.484Z,1014.14
2018-10-12T07:12:23.446Z,1014.19
2018-10-12T07:13:23.409Z,1014.15
2018-10-12T07:14:23.403Z,1014.12
2018-10-12T07:15:23.344Z,1014.10
2018-10-12T07:16:23.308Z,1014.11
2018-10-12T07:17:23.272Z,1014.08
2018-10-12T07:18:23.231Z,1014.12
2018-10-12T07:19:23.259Z,1014.10
2018-10-12T07:20:23.163Z,1014.14
2018-10-12T07:21:23.127Z,1014.19
2018-10-12T07:22:23.098Z,1014.15
2018-10-12T07:23:23.068Z,1014.20
2018-10-12T07:24:23.030Z,1014.25
2018-10-12T07:25:23.021Z,1014.22
2018-10-12T07:26:22.953Z,1014.24
2018-10-12T07:27:22.921Z,1014.27
2018-10-12T07:28:22.895Z,1014.28
2018-10-12T07:29:22.855Z,1014.32
2018-10-12T07:30:22.839Z,1014.43
2018-10-12T07:31:22.796Z,1014.57
2018-10-12T07:32:22.750Z,1014.64
2018-10-12T07:33:22.714Z,1014.69
2018-10-12T07:34:22.685Z,1014.69
2018-10-12T07:35:22.674Z,1014.72
2018-10-12T07:36:22.615Z,1014.69
2018-10-12T07:37:22.935Z,1014.81
2018-10-12T07:38:22.537Z,1014.74
2018-10-12T07:39:22.504Z,1014.66
2018-10-12T07:40:22.497Z,1014.74
2018-10-12T07:41:22.438Z,1014.33
2018-10-12T07:42:22.460Z,1014.28
2018-10-12T07:43:22.379Z,1014.31
2018-10-12T07:44:22.340Z,1014.32
2018-10-12T07:45:22.302Z,1014.32
2018-10-12T07:46:22.297Z,1014.37
2018-10-12T07:47:22.297Z,1014.35
2018-10-12T07:48:22.238Z,1014.39
2018-10-12T07:49:22.174Z,1014.39
2018-10-12T07:50:22.132Z,1015.00
2018-10-12T07:51:22.123Z,1015.00
2018-10-12T07:52:22.062Z,1015.03
2018-10-12T07:53:22.099Z,1015.06
2018-10-12T07:54:22.023Z,1014.95
2018-10-12T07:55:21.968Z,1015.06
2018-10-12T07:56:21.956Z,1015.04
2018-10-12T07:57:21.901Z,1015.09
2018-10-12T07:58:21.862Z,1015.09
2018-10-12T07:59:21.844Z,1015.11
2018-10-12T08:00:21.888Z,1015.12
2018-10-12T08:01:21.779Z,1015.11
2018-10-12T08:02:21.743Z,1015.20
2018-10-12T08:03:21.688Z,1015.29
2018-10-12T08:04:21.655Z,1015.31
2018-10-12T08:05:21.619Z,1015.36
2018-10-12T08:06:21.699Z,1015.35
2018-10-12T08:07:21.585Z,1015.44
2018-10-12T08:08:21.523Z,1015.48
2018-10-12T08:09:21.490Z,1015.57
2018-10-12T08:10:21.453Z,1015.62
2018-10-12T08:11:21.417Z,1015.65
2018-10-12T08:12:21.417Z,1015.72
2018-10-12T08:13:21.352Z,1015.71
2018-10-12T08:14:21.329Z,1015.84
2018-10-12T08:15:21.295Z,1015.83
2018-10-12T08:16:21.256Z,1015.96
2018-10-12T08:17:21.220Z,1016.01
2018-10-12T08:18:21.214Z,1016.12
2018-10-12T08:19:21.161Z,1015.02
2018-10-12T08:20:21.150Z,1016.17
2018-10-12T08:21:21.100Z,1016.20
2018-10-12T08:22:21.055Z,1015.90
2018-10-12T08:23:21.046Z,1014.97
2018-10-12T08:24:20.991Z,1015.05
2018-10-12T08:25:20.959Z,1015.60
2018-10-12T08:26:20.930Z,1015.26
2018-10-12T08:27:20.902Z,1015.55
2018-10-12T08:28:20.891Z,1015.68
2018-10-12T08:29:20.836Z,1014.93
2018-10-12T08:30:20.791Z,1014.87
2018-10-12T08:31:20.773Z,1014.83
2018-10-12T08:32:20.732Z,1014.91
2018-10-12T08:33:20.724Z,1014.90
2018-10-12T08:34:20.660Z,1015.08
2018-10-12T08:35:20.626Z,1015.08
2018-10-12T08:36:20.617Z,1015.08
2018-10-12T08:37:20.560Z,1015.01
2018-10-12T08:38:20.530Z,1015.01
2018-10-12T08:39:20.522Z,1014.99
2018-10-12T08:40:20.460Z,1015.28
2018-10-12T08:41:20.428Z,1015.05
2018-10-12T08:42:20.388Z,1015.09
2018-10-12T08:43:20.355Z,1015.03
2018-10-12T08:44:20.344Z,1015.30
2018-10-12T08:45:20.286Z,1015.10
2018-10-12T08:46:20.265Z,1015.45
2018-10-12T08:47:20.232Z,1015.06
2018-10-12T08:48:20.185Z,1015.09
2018-10-12T08:49:20.176Z,1015.08
2018-10-12T08:50:20.128Z,1015.02
2018-10-12T08:51:20.088Z,1015.04
2018-10-12T08:52:20.056Z,1015.02
2018-10-12T08:53:20.017Z,1015.17
2018-10-12T08:54:19.978Z,1015.21
2018-10-12T08:55:20.017Z,1015.19
2018-10-12T08:56:19.912Z,1015.15
2018-10-12T08:57:19.873Z,1015.27
2018-10-12T08:58:19.845Z,1015.20
2018-10-12T08:59:19.812Z,1015.44
2018-10-12T09:00:19.807Z,1015.54
2018-10-12T09:01:19.743Z,1015.48
2018-10-12T09:02:19.702Z,1015.28
2018-10-12T09:03:19.671Z,1015.48
2018-10-12T09:04:19.643Z,1015.48
2018-10-12T09:05:19.610Z,1015.52
2018-10-12T09:06:19.588Z,1015.47
2018-10-12T09:07:19.531Z,1015.47
2018-10-12T09:08:19.498Z,1015.53
2018-10-12T09:09:19.471Z,1015.51
2018-10-12T09:10:19.442Z,1015.55
2018-10-12T09:11:19.431Z,1015.59
2018-10-12T09:12:19.373Z,1015.64
2018-10-12T09:13:19.340Z,1015.62
2018-10-12T09:14:19.299Z,1015.62
2018-10-12T09:15:19.269Z,1015.53
2018-10-12T09:16:19.247Z,1015.39
2018-10-12T09:17:19.224Z,1015.46
2018-10-12T09:18:19.177Z,1015.23
2018-10-12T09:19:19.143Z,1015.22
2018-10-12T09:20:19.143Z,1015.55
2018-10-12T09:21:19.094Z,1015.45
2018-10-12T09:22:19.047Z,1015.43
2018-10-12T09:23:19.015Z,1015.41
2018-10-12T09:24:18.982Z,1015.48
2018-10-12T09:25:18.961Z,1015.45
2018-10-12T09:26:18.937Z,1015.46
2018-10-12T09:27:18.953Z,1015.43
2018-10-12T09:28:18.848Z,1015.45
2018-10-12T09:29:18.815Z,1015.43
2018-10-12T09:30:18.823Z,1015.41
2018-10-12T09:31:18.758Z,1015.44
2018-10-12T09:32:18.749Z,1015.44
2018-10-12T09:33:18.694Z,1015.53
2018-10-12T09:34:18.657Z,1015.50
2018-10-12T09:35:18.626Z,1015.54
2018-10-12T09:36:18.606Z,1015.36
2018-10-12T09:37:18.592Z,1015.46
2018-10-12T09:38:18.530Z,1015.30
2018-10-12T09:39:18.498Z,1015.49
2018-10-12T09:40:18.471Z,1015.55
2018-10-12T09:41:18.439Z,1015.58
2018-10-12T09:42:18.426Z,1015.22
2018-10-12T09:43:18.413Z,1015.47
2018-10-12T09:44:18.373Z,1015.55
2018-10-12T09:45:18.311Z,1015.21
2018-10-12T09:46:18.278Z,1015.20
2018-10-12T09:47:18.266Z,1015.20
2018-10-12T09:48:18.232Z,1015.44
2018-10-12T09:49:18.177Z,1015.43
2018-10-12T09:50:18.236Z,1015.33
2018-10-12T09:51:18.120Z,1015.41
2018-10-12T09:52:18.105Z,1015.39
2018-10-12T09:53:18.071Z,1015.34
2018-10-12T09:54:18.020Z,1015.36
2018-10-12T09:55:17.989Z,1015.39
2018-10-12T09:56:17.960Z,1015.33
2018-10-12T09:57:17.929Z,1015.41
2018-10-12T09:58:17.931Z,1015.42
2018-10-12T09:59:17.854Z,1015.40
2018-10-12T10:00:17.824Z,1015.38
2018-10-12T10:01:17.790Z,1015.39
2018-10-12T10:02:17.876Z,1015.52
2018-10-12T10:03:17.732Z,1015.40
2018-10-12T10:04:17.724Z,1015.46
2018-10-12T10:05:17.672Z,1015.38
2018-10-12T10:06:17.631Z,1015.36
2018-10-12T10:07:17.624Z,1015.35
2018-10-12T10:08:17.679Z,1015.37
2018-10-12T10:09:17.542Z,1015.28
2018-10-12T10:10:17.502Z,1015.24
2018-10-12T10:11:17.473Z,1015.26
2018-10-12T10:12:17.443Z,1015.27
2018-10-12T10:13:17.428Z,1015.25
2018-10-12T10:14:17.414Z,1015.21
2018-10-12T10:15:17.390Z,1015.22
2018-10-12T10:16:17.318Z,1015.24
2018-10-12T10:17:17.289Z,1015.18
2018-10-12T10:18:17.251Z,1015.12
2018-10-12T10:19:17.276Z,1015.18
2018-10-12T10:20:17.215Z,1015.16
2018-10-12T10:21:17.155Z,1015.19
2018-10-12T10:22:17.143Z,1015.20
2018-10-12T10:23:17.123Z,1015.24
2018-10-12T10:24:17.061Z,1015.16
2018-10-12T10:25:17.031Z,1015.15
2018-10-12T10:26:17.029Z,1015.13
2018-10-12T10:27:16.979Z,1015.15
2018-10-12T10:28:16.943Z,1015.15
2018-10-12T10:29:17.048Z,1015.09
2018-10-12T10:30:16.875Z,1015.19
2018-10-12T10:31:16.846Z,1015.15
2018-10-12T10:32:16.882Z,1015.11
2018-10-12T10:33:16.780Z,1015.14
2018-10-12T10:34:16.783Z,1015.12
2018-10-12T10:35:16.724Z,1015.14
2018-10-12T10:36:16.694Z,1015.10
2018-10-12T10:37:16.665Z,1015.09
2018-10-12T10:38:16.627Z,1015.08
2018-10-12T10:39:16.599Z,1015.10
2018-10-12T10:40:16.600Z,1015.04
2018-10-12T10:41:16.544Z,1015.06
2018-10-12T10:42:16.506Z,1015.05
2018-10-12T10:43:16.475Z,1015.03
2018-10-12T10:44:16.446Z,1015.02
2018-10-12T10:45:16.515Z,1015.05
2018-10-12T10:46:16.429Z,1015.10
2018-10-12T10:47:16.361Z,1015.06
2018-10-12T10:48:16.332Z,1015.03
2018-10-12T10:49:16.301Z,1015.03
2018-10-12T10:50:16.285Z,1015.05
2018-10-12T10:51:16.232Z,1015.04
2018-10-12T10:52:16.203Z,1015.04
2018-10-12T10:53:16.172Z,1015.08
2018-10-12T10:54:16.148Z,1015.04
2018-10-12T10:55:16.141Z,1015.14
2018-10-12T10:56:16.081Z,1015.04
2018-10-12T10:57:16.049Z,1015.02
2018-10-12T10:58:16.026Z,1015.03
2018-10-12T10:59:15.997Z,1015.01
2018-10-12T11:00:15.997Z,1014.98
2018-10-12T11:01:15.934Z,1014.97
2018-10-12T11:02:15.897Z,1015.02
2018-10-12T11:03:15.867Z,1014.99
2018-10-12T11:04:15.838Z,1015.05
2018-10-12T11:05:15.803Z,1015.00
2018-10-12T11:06:15.817Z,1014.94
2018-10-12T11:07:15.753Z,1014.96
2018-10-12T11:08:15.721Z,1014.91
2018-10-12T11:09:15.690Z,1014.91
2018-10-12T11:10:15.653Z,1014.95
2018-10-12T11:11:15.648Z,1014.95
2018-10-12T11:12:15.658Z,1014.87
2018-10-12T11:13:15.690Z,1014.91
2018-10-12T11:14:15.528Z,1014.92
2018-10-12T11:15:15.499Z,1014.96
2018-10-12T11:16:15.492Z,1015.01
2018-10-12T11:17:15.463Z,1014.99
2018-10-12T11:18:15.414Z,1015.04
2018-10-12T11:19:15.386Z,1015.07
2018-10-12T11:20:15.355Z,1015.00
2018-10-12T11:21:15.324Z,1015.03
2018-10-12T11:22:15.282Z,1014.99
2018-10-12T11:23:15.282Z,1014.98
2018-10-12T11:24:15.266Z,1014.94
2018-10-12T11:25:15.195Z,1015.00
2018-10-12T11:26:15.206Z,1014.91
2018-10-12T11:27:15.138Z,1014.81
2018-10-12T11:28:15.106Z,1014.81
2018-10-12T11:29:15.072Z,1014.87
2018-10-12T11:30:15.047Z,1014.82
2018-10-12T11:31:15.040Z,1014.83
2018-10-12T11:32:14.988Z,1014.85
2018-10-12T11:33:14.978Z,1014.78
2018-10-12T11:34:14.917Z,1014.81
2018-10-12T11:35:14.887Z,1014.78
2018-10-12T11:36:14.855Z,1014.76
2018-10-12T11:37:14.864Z,1014.72
2018-10-12T11:38:14.845Z,1014.74
2018-10-12T11:39:14.773Z,1014.75
2018-10-12T11:40:14.741Z,1014.62
2018-10-12T11:41:14.709Z,1014.76
2018-10-12T11:42:14.691Z,1014.68
2018-10-12T11:43:14.641Z,1014.71
2018-10-12T11:44:14.616Z,1014.67
2018-10-12T11:45:14.631Z,1014.65
2018-10-12T11:46:14.551Z,1014.61
2018-10-12T11:47:14.546Z,1014.61
2018-10-12T11:48:14.487Z,1014.61
2018-10-12T11:49:14.462Z,1014.55
2018-10-12T11:50:14.432Z,1014.60
2018-10-12T11:51:14.400Z,1014.54
2018-10-12T11:52:14.440Z,1014.53
2018-10-12T11:53:14.360Z,1014.49
2018-10-12T11:54:14.301Z,1014.50
2018-10-12T11:55:14.272Z,1014.50
2018-10-12T11:56:14.242Z,1014.61
2018-10-12T11:57:14.236Z,1014.51
2018-10-12T11:58:14.205Z,1014.46
2018-10-12T11:59:14.155Z,1014.48
2018-10-12T12:00:14.115Z,1014.46
2018-10-12T12:01:14.083Z,1014.42
2018-10-12T12:02:14.112Z,1014.39
2018-10-12T12:03:14.055Z,1014.44
2018-10-12T12:04:13.995Z,1014.47
2018-10-12T12:05:13.963Z,1014.50
2018-10-12T12:06:13.927Z,1014.50